Time;durP1;ratioP1;P1;durP2;ratioP2;P2;SDS_P1;SDS_P2;PMS_P1;PMS_P2;Temp;Humidity;BMP_temperature;BMP_pressure;BME280_temperature;BME280_humidity;BME280_pressure;Samples;Min_cycle;Max_cycle;Signal;HPM_P1;HPM_P2
2021/09/01 00:00:13;;;;;;;1999.90;999.90;;;;;;;11.12;53.18;101965.41;5029089;27;96953;-76
2021/09/01 00:02:42;;;;;;;1999.90;999.90;;;;;;;11.12;53.12;101963.63;5030971;27;96858;-75
2021/09/01 00:05:11;;;;;;;1999.90;999.90;;;;;;;11.10;53.25;101968.00;5028380;27;100381;-77
2021/09/01 00:07:41;;;;;;;1999.90;999.90;;;;;;;11.05;53.27;101964.25;5014709;27;99221;-77
2021/09/01 00:10:10;;;;;;;1999.90;999.90;;;;;;;11.03;53.49;101970.41;5014003;27;96800;-76
2021/09/01 00:12:39;;;;;;;1999.90;999.90;;;;;;;10.99;53.27;101968.47;5031160;27;96778;-75
2021/09/01 00:15:10;;;;;;;1999.90;999.90;;;;;;;10.94;53.58;101968.28;5040625;27;98520;-76
2021/09/01 00:17:39;;;;;;;1999.90;999.90;;;;;;;10.88;53.80;101980.47;5036904;27;100081;-77
2021/09/01 00:20:11;;;;;;;1999.90;999.90;;;;;;;10.81;53.80;101973.09;5031589;27;97239;-76
2021/09/01 00:22:43;;;;;;;1999.90;999.90;;;;;;;10.76;53.87;101974.63;5030696;27;97008;-75
2021/09/01 00:25:12;;;;;;;1999.90;999.90;;;;;;;10.72;54.04;101978.06;5013026;27;99547;-76
2021/09/01 00:27:40;;;;;;;1999.90;999.90;;;;;;;10.66;54.11;101970.72;5031495;27;99985;-75
2021/09/01 00:30:10;;;;;;;1999.90;999.90;;;;;;;10.61;54.23;101964.28;5031591;27;96949;-75
2021/09/01 00:32:38;;;;;;;1999.90;999.90;;;;;;;10.59;54.42;101970.41;5032023;27;96831;-76
2021/09/01 00:35:08;;;;;;;1999.90;999.90;;;;;;;10.56;54.38;101964.94;5021412;27;97645;-75
2021/09/01 00:37:37;;;;;;;1999.90;999.90;;;;;;;10.53;54.59;101967.50;5012509;27;100052;-76
2021/09/01 00:40:06;;;;;;;1999.90;999.90;;;;;;;10.51;54.46;101966.53;5029667;27;96743;-78
2021/09/01 00:42:35;;;;;;;1999.90;999.90;;;;;;;10.47;54.77;101975.22;5040111;27;97364;-75
2021/09/01 00:45:05;;;;;;;1999.90;999.90;;;;;;;10.45;54.72;101976.94;5034756;27;99743;-75
2021/09/01 00:47:35;;;;;;;1999.90;999.90;;;;;;;10.42;55.02;101974.16;5033613;27;97522;-78
2021/09/01 00:50:04;;;;;;;1999.90;999.90;;;;;;;10.43;54.91;101973.31;5033569;27;99480;-75
2021/09/01 00:52:34;;;;;;;1999.90;999.90;;;;;;;10.41;54.88;101975.88;5031363;27;97529;-76
2021/09/01 00:55:04;;;;;;;1999.90;999.90;;;;;;;10.42;55.27;101976.81;5016736;27;99367;-77
2021/09/01 00:57:33;;;;;;;1999.90;999.90;;;;;;;10.38;55.35;101975.75;5032304;27;97631;-75
2021/09/01 01:00:03;;;;;;;1999.90;999.90;;;;;;;10.36;55.36;101973.84;5031232;27;97240;-75
2021/09/01 01:02:32;;;;;;;1999.90;999.90;;;;;;;10.34;55.51;101975.56;5018597;27;97507;-75
2021/09/01 01:05:02;;;;;;;1999.90;999.90;;;;;;;10.33;55.72;101969.34;5017202;27;101259;-75
2021/09/01 01:07:31;;;;;;;1999.90;999.90;;;;;;;10.32;55.84;101980.81;5032676;27;99250;-75
2021/09/01 01:09:59;;;;;;;1999.90;999.90;;;;;;;10.32;55.85;101972.81;5035643;27;96761;-75
2021/09/01 01:12:27;;;;;;;1999.90;999.90;;;;;;;10.42;55.61;101974.16;5037098;27;97527;-74
2021/09/01 01:14:55;;;;;;;1999.90;999.90;;;;;;;10.52;55.51;101979.00;5036618;27;97579;-74
2021/09/01 01:17:23;;;;;;;1999.90;999.90;;;;;;;10.57;55.56;101967.69;5031738;27;100415;-75
2021/09/01 01:19:53;;;;;;;1999.90;999.90;;;;;;;10.63;55.43;101975.91;5044383;27;96975;-75
2021/09/01 01:22:24;;;;;;;1999.90;999.90;;;;;;;10.70;55.45;101979.75;5042041;27;97216;-76
2021/09/01 01:24:54;;;;;;;1999.90;999.90;;;;;;;10.72;55.36;101983.38;5033843;27;97612;-76
2021/09/01 01:27:26;;;;;;;1999.90;999.90;;;;;;;10.78;55.43;101981.84;5033273;27;97713;-76
2021/09/01 01:29:55;;;;;;;1999.90;999.90;;;;;;;10.82;55.50;101983.78;5035347;27;97060;-76
2021/09/01 01:32:23;;;;;;;1999.90;999.90;;;;;;;10.78;55.61;101978.25;5016206;27;97082;-76
2021/09/01 01:34:51;;;;;;;1999.90;999.90;;;;;;;10.77;55.79;101980.03;5028781;27;99429;-76
2021/09/01 01:37:19;;;;;;;1999.90;999.90;;;;;;;10.74;55.88;101979.91;5033776;27;99182;-77
2021/09/01 01:39:47;;;;;;;1999.90;999.90;;;;;;;10.74;56.09;101976.34;5020466;27;96818;-77
2021/09/01 01:42:16;;;;;;;1999.90;999.90;;;;;;;10.70;56.13;101985.94;5013497;27;97946;-77
2021/09/01 01:44:45;;;;;;;1999.90;999.90;;;;;;;10.64;56.27;101984.81;5035006;27;100591;-77
2021/09/01 01:47:13;;;;;;;1999.90;999.90;;;;;;;10.55;56.55;101974.72;5015019;27;99163;-76
2021/09/01 01:49:45;;;;;;;1999.90;999.90;;;;;;;10.44;56.96;101985.75;5034165;27;96906;-76
2021/09/01 01:52:17;;;;;;;1999.90;999.90;;;;;;;10.37;56.87;101989.91;5041974;27;96918;-76
2021/09/01 01:54:45;;;;;;;1999.90;999.90;;;;;;;10.40;56.80;101984.69;5033482;27;99674;-75
2021/09/01 01:57:15;;;;;;;1999.90;999.90;;;;;;;10.45;56.76;101991.13;5030696;27;97652;-75
2021/09/01 01:59:46;;;;;;;1999.90;999.90;;;;;;;10.49;56.66;101987.75;5032696;27;96866;-75
2021/09/01 02:02:15;;;;;;;1999.90;999.90;;;;;;;10.56;56.71;101984.50;5037302;27;97017;-76
2021/09/01 02:04:44;;;;;;;1999.90;999.90;;;;;;;10.66;56.52;101983.13;5011495;27;100373;-75
2021/09/01 02:07:13;;;;;;;1999.90;999.90;;;;;;;10.73;56.49;101986.09;5037189;27;97486;-75
2021/09/01 02:09:42;;;;;;;1999.90;999.90;;;;;;;10.80;56.47;101988.16;5032009;27;97399;-75
2021/09/01 02:12:11;;;;;;;1999.90;999.90;;;;;;;10.85;56.37;101991.00;5033437;27;97659;-76
2021/09/01 02:14:41;;;;;;;1999.90;999.90;;;;;;;10.88;56.32;101996.44;5030766;27;99745;-76
2021/09/01 02:17:10;;;;;;;1999.90;999.90;;;;;;;10.89;56.29;101996.50;5028352;27;99540;-76
2021/09/01 02:19:38;;;;;;;1999.90;999.90;;;;;;;10.94;56.25;101994.03;5030768;27;97048;-77
2021/09/01 02:22:07;;;;;;;1999.90;999.90;;;;;;;10.94;56.41;101992.25;5030227;27;97316;-75
2021/09/01 02:24:35;;;;;;;1999.90;999.90;;;;;;;10.97;56.37;101986.13;5040917;27;100532;-76
2021/09/01 02:27:04;;;;;;;1999.90;999.90;;;;;;;11.04;56.27;101988.19;5027828;27;99203;-76
2021/09/01 02:29:32;;;;;;;1999.90;999.90;;;;;;;11.06;56.19;101987.41;5014136;27;97027;-75
2021/09/01 02:31:59;;;;;;;1999.90;999.90;;;;;;;11.10;56.12;101993.75;5032229;27;97287;-75
2021/09/01 02:34:29;;;;;;;1999.90;999.90;;;;;;;11.14;56.13;101998.34;5032884;27;100366;-76
2021/09/01 02:36:59;;;;;;;1999.90;999.90;;;;;;;11.17;55.85;101995.78;5028950;27;100240;-75
2021/09/01 02:39:27;;;;;;;1999.90;999.90;;;;;;;11.20;56.01;101995.91;5012152;27;96897;-76
2021/09/01 02:41:56;;;;;;;1999.90;999.90;;;;;;;11.23;55.93;101995.13;5031326;27;97609;-77
2021/09/01 02:44:25;;;;;;;1999.90;999.90;;;;;;;11.21;55.90;101993.28;5033770;27;97616;-76
2021/09/01 02:46:53;;;;;;;1999.90;999.90;;;;;;;11.19;56.03;101996.78;5014032;27;100534;-76
2021/09/01 02:49:21;;;;;;;1999.90;999.90;;;;;;;11.12;56.06;101992.06;5015251;27;96781;-76
2021/09/01 02:51:50;;;;;;;1999.90;999.90;;;;;;;11.08;56.40;102000.78;5042429;27;96868;-77
2021/09/01 02:54:18;;;;;;;1999.90;999.90;;;;;;;11.08;56.37;102003.44;5032477;27;99207;-75
2021/09/01 02:56:47;;;;;;;1999.90;999.90;;;;;;;11.08;56.45;102007.03;5017648;27;99611;-76
2021/09/01 02:59:16;;;;;;;1999.90;999.90;;;;;;;10.92;56.52;102009.03;5030873;27;96910;-75
2021/09/01 03:01:45;;;;;;;1999.90;999.90;;;;;;;10.80;56.78;102008.53;5015378;27;96863;-75
2021/09/01 03:04:13;;;;;;;1999.90;999.90;;;;;;;10.74;57.14;102006.53;5030460;27;99814;-75
2021/09/01 03:06:41;;;;;;;1999.90;999.90;;;;;;;10.73;56.95;102004.72;5033391;27;97584;-75
2021/09/01 03:09:12;;;;;;;1999.90;999.90;;;;;;;10.77;56.95;102008.41;5034569;27;97540;-75
2021/09/01 03:11:40;;;;;;;1999.90;999.90;;;;;;;10.82;57.02;102014.81;5033832;27;97176;-76
2021/09/01 03:14:10;;;;;;;1999.90;999.90;;;;;;;10.86;57.06;102014.09;5033350;27;99114;-74
2021/09/01 03:16:39;;;;;;;1999.90;999.90;;;;;;;10.83;56.76;102011.34;5032402;27;100369;-76
2021/09/01 03:19:08;;;;;;;1999.90;999.90;;;;;;;10.68;57.19;102008.97;5034637;27;97229;-76
2021/09/01 03:21:36;;;;;;;1999.90;999.90;;;;;;;10.56;57.52;102011.13;5034453;27;97037;-77
2021/09/01 03:24:05;;;;;;;1999.90;999.90;;;;;;;10.50;57.38;102018.88;5033060;27;98270;-75
2021/09/01 03:26:34;;;;;;;1999.90;999.90;;;;;;;10.47;57.59;102018.72;5034087;27;101295;-75
2021/09/01 03:29:02;;;;;;;1999.90;999.90;;;;;;;10.39;58.02;102014.81;5029508;27;96726;-75
2021/09/01 03:31:30;;;;;;;1999.90;999.90;;;;;;;10.34;57.84;102016.38;5013499;27;97401;-76
2021/09/01 03:33:59;;;;;;;1999.90;999.90;;;;;;;10.34;57.75;102021.69;5034396;27;99789;-76
2021/09/01 03:36:28;;;;;;;1999.90;999.90;;;;;;;10.23;58.17;102012.34;5011235;27;99037;-76
2021/09/01 03:38:57;;;;;;;1999.90;999.90;;;;;;;10.13;58.27;102013.75;5034428;27;97245;-76
2021/09/01 03:41:26;;;;;;;1999.90;999.90;;;;;;;10.07;58.37;102017.88;5038635;27;96974;-76
2021/09/01 03:43:55;;;;;;;1999.90;999.90;;;;;;;10.05;58.41;102012.50;5031401;27;99279;-76
2021/09/01 03:46:28;;;;;;;1999.90;999.90;;;;;;;10.02;58.58;102007.06;5013546;27;100187;-76
2021/09/01 03:49:00;;;;;;;1999.90;999.90;;;;;;;10.04;58.48;102016.00;5029147;27;96809;-77
2021/09/01 03:51:28;;;;;;;1999.90;999.90;;;;;;;10.00;58.77;102007.81;5034385;27;96884;-76
2021/09/01 03:53:58;;;;;;;1999.90;999.90;;;;;;;10.00;58.69;102008.72;5030692;27;99287;-75
2021/09/01 03:56:27;;;;;;;1999.90;999.90;;;;;;;10.01;58.75;102010.53;5030237;27;99587;-76
2021/09/01 03:58:56;;;;;;;1999.90;999.90;;;;;;;10.02;58.75;102017.69;5029247;27;97321;-76
2021/09/01 04:01:24;;;;;;;1999.90;999.90;;;;;;;10.03;58.80;102023.88;5024534;27;96948;-77
2021/09/01 04:03:53;;;;;;;1999.90;999.90;;;;;;;10.01;58.71;102017.63;5005718;27;99261;-76
2021/09/01 04:06:22;;;;;;;1999.90;999.90;;;;;;;10.01;58.61;102021.16;5031560;27;99633;-75
2021/09/01 04:08:50;;;;;;;1999.90;999.90;;;;;;;10.05;58.53;102030.19;5012295;27;97324;-78
2021/09/01 04:11:19;;;;;;;1999.90;999.90;;;;;;;10.05;58.70;102031.09;5014219;27;96774;-76
2021/09/01 04:13:47;;;;;;;1999.90;999.90;;;;;;;10.06;58.57;102027.59;5029527;27;98963;-76
2021/09/01 04:16:16;;;;;;;1999.90;999.90;;;;;;;10.11;58.63;102034.03;5023723;27;98379;-78
2021/09/01 04:18:44;;;;;;;1999.90;999.90;;;;;;;10.15;58.48;102025.34;5032922;27;97223;-77
2021/09/01 04:21:12;;;;;;;1999.90;999.90;;;;;;;10.23;58.36;102030.09;5016006;27;97348;-76
2021/09/01 04:23:40;;;;;;;1999.90;999.90;;;;;;;10.28;58.29;102033.84;5035289;27;99759;-76
2021/09/01 04:26:08;;;;;;;1999.90;999.90;;;;;;;10.23;58.31;102036.28;5019839;27;100919;-77
2021/09/01 04:28:36;;;;;;;1999.90;999.90;;;;;;;10.19;58.61;102031.72;5026623;27;96806;-76
2021/09/01 04:31:07;;;;;;;1999.90;999.90;;;;;;;10.19;58.29;102048.56;5047762;27;97007;-76
2021/09/01 04:33:37;;;;;;;1999.90;999.90;;;;;;;10.23;58.45;102040.72;5031631;27;100636;-74
2021/09/01 04:36:05;;;;;;;1999.90;999.90;;;;;;;10.27;58.32;102042.66;5012717;27;97227;-76
2021/09/01 04:38:33;;;;;;;1999.90;999.90;;;;;;;10.24;58.33;102043.44;5032307;27;96780;-77
2021/09/01 04:41:01;;;;;;;1999.90;999.90;;;;;;;10.26;58.31;102048.81;5009050;27;96969;-76
2021/09/01 04:43:32;;;;;;;1999.90;999.90;;;;;;;10.25;58.53;102050.56;5043647;27;97304;-77
2021/09/01 04:46:05;;;;;;;1999.90;999.90;;;;;;;10.23;58.59;102050.50;5012990;27;100408;-77
2021/09/01 04:48:33;;;;;;;1999.90;999.90;;;;;;;10.18;58.77;102046.75;5020321;27;97445;-78
2021/09/01 04:51:02;;;;;;;1999.90;999.90;;;;;;;10.09;58.95;102046.34;5036247;27;96913;-76
2021/09/01 04:53:30;;;;;;;1999.90;999.90;;;;;;;10.05;58.97;102043.47;5030002;27;96891;-77
2021/09/01 04:55:58;;;;;;;1999.90;999.90;;;;;;;10.04;59.05;102053.25;5033407;27;97436;-76
2021/09/01 04:58:26;;;;;;;1999.90;999.90;;;;;;;10.09;58.96;102059.66;5029040;27;96878;-76
2021/09/01 05:00:54;;;;;;;1999.90;999.90;;;;;;;10.10;58.73;102053.47;5032989;27;96989;-75
2021/09/01 05:03:22;;;;;;;1999.90;999.90;;;;;;;10.18;58.72;102064.47;5033050;27;98790;-77
2021/09/01 05:05:50;;;;;;;1999.90;999.90;;;;;;;10.23;58.67;102056.69;5032013;27;97627;-77
2021/09/01 05:08:20;;;;;;;1999.90;999.90;;;;;;;10.25;58.66;102060.31;5035082;27;97042;-78
2021/09/01 05:10:48;;;;;;;1999.90;999.90;;;;;;;10.30;58.39;102065.00;5018026;27;97776;-75
2021/09/01 05:13:15;;;;;;;1999.90;999.90;;;;;;;10.34;58.42;102058.94;5030528;27;100734;-76
2021/09/01 05:15:43;;;;;;;1999.90;999.90;;;;;;;10.33;58.54;102069.53;5029322;27;101004;-77
2021/09/01 05:18:11;;;;;;;1999.90;999.90;;;;;;;10.30;58.60;102066.75;5028359;27;98368;-77
2021/09/01 05:20:40;;;;;;;1999.90;999.90;;;;;;;10.31;58.63;102074.78;5031572;27;96872;-75
2021/09/01 05:23:09;;;;;;;1999.90;999.90;;;;;;;10.29;58.50;102076.47;5029332;27;99016;-77
2021/09/01 05:25:44;;;;;;;1999.90;999.90;;;;;;;10.20;59.37;102071.66;5013442;27;100673;-77
2021/09/01 05:28:15;;;;;;;1999.90;999.90;;;;;;;10.14;59.07;102076.72;5008656;27;97270;-78
2021/09/01 05:30:44;;;;;;;1999.90;999.90;;;;;;;10.15;59.09;102077.63;5014776;27;96664;-76
2021/09/01 05:33:13;;;;;;;1999.90;999.90;;;;;;;10.13;59.08;102084.63;5030325;27;99746;-75
2021/09/01 05:35:41;;;;;;;1999.90;999.90;;;;;;;10.15;58.96;102094.50;5028669;27;100108;-77
2021/09/01 05:38:10;;;;;;;1999.90;999.90;;;;;;;10.22;58.80;102095.69;5026229;27;97577;-76
2021/09/01 05:40:41;;;;;;;1999.90;999.90;;;;;;;10.26;58.83;102102.03;5025838;27;96767;-77
2021/09/01 05:43:09;;;;;;;1999.90;999.90;;;;;;;10.22;58.72;102098.34;5045235;27;98070;-77
2021/09/01 05:45:38;;;;;;;1999.90;999.90;;;;;;;10.22;58.88;102101.00;5011906;27;99134;-75
2021/09/01 05:48:07;;;;;;;1999.90;999.90;;;;;;;10.24;58.80;102099.31;5031760;27;97419;-75
2021/09/01 05:50:35;;;;;;;1999.90;999.90;;;;;;;10.29;59.05;102096.84;5040839;27;98152;-77
2021/09/01 05:53:03;;;;;;;1999.90;999.90;;;;;;;10.33;58.52;102107.69;5013652;27;99688;-77
2021/09/01 05:55:35;;;;;;;1999.90;999.90;;;;;;;10.39;58.46;102109.72;5031404;27;97536;-77
2021/09/01 05:58:04;;;;;;;1999.90;999.90;;;;;;;10.43;58.40;102106.38;5031535;27;96793;-77
2021/09/01 06:00:35;;;;;;;1999.90;999.90;;;;;;;10.46;58.35;102111.81;5032424;27;97045;-75
2021/09/01 06:03:09;;;;;;;1999.90;999.90;;;;;;;10.46;58.47;102109.16;4999033;27;98312;-77
2021/09/01 06:05:38;;;;;;;1999.90;999.90;;;;;;;10.50;58.49;102103.13;5027868;27;99375;-76
2021/09/01 06:08:08;;;;;;;1999.90;999.90;;;;;;;10.51;58.17;102108.50;5033089;27;96748;-81
2021/09/01 06:10:37;;;;;;;1999.90;999.90;;;;;;;10.51;58.40;102111.16;5024575;27;96816;-81
2021/09/01 06:13:08;;;;;;;1999.90;999.90;;;;;;;10.46;58.40;102111.81;5022433;27;99484;-79
2021/09/01 06:15:38;;;;;;;1999.90;999.90;;;;;;;10.47;58.44;102113.63;5021873;27;100899;-80
2021/09/01 06:18:07;;;;;;;1999.90;999.90;;;;;;;10.43;58.57;102109.03;5035260;27;96660;-81
2021/09/01 06:20:38;;;;;;;1999.90;999.90;;;;;;;10.42;58.41;102108.13;5035689;27;97306;-80
2021/09/01 06:23:06;;;;;;;1999.90;999.90;;;;;;;10.45;58.51;102107.34;5018290;27;96911;-83
2021/09/01 06:25:34;;;;;;;1999.90;999.90;;;;;;;10.46;58.48;102111.81;5019320;27;101134;-80
2021/09/01 06:28:04;;;;;;;1999.90;999.90;;;;;;;10.49;58.41;102109.28;5016431;27;97183;-79
2021/09/01 06:30:34;;;;;;;1999.90;999.90;;;;;;;10.54;58.29;102123.72;5016545;27;96894;-83
2021/09/01 06:33:03;;;;;;;1999.90;999.90;;;;;;;10.55;58.32;102117.53;5028883;27;98561;-81
2021/09/01 06:35:31;;;;;;;1999.90;999.90;;;;;;;10.56;58.03;102124.66;5038408;27;98035;-80
2021/09/01 06:37:59;;;;;;;1999.90;999.90;;;;;;;10.57;58.40;102121.16;5035780;27;97013;-82
2021/09/01 06:40:27;;;;;;;1999.90;999.90;;;;;;;10.59;58.33;102120.41;5035493;27;96925;-80
2021/09/01 06:42:55;;;;;;;1999.90;999.90;;;;;;;10.56;58.35;102119.34;5020141;27;100256;-78
2021/09/01 06:45:24;;;;;;;1999.90;999.90;;;;;;;10.62;58.06;102124.91;5039007;27;96965;-77
2021/09/01 06:47:54;;;;;;;1999.90;999.90;;;;;;;10.67;58.15;102124.28;5036354;27;97919;-78
2021/09/01 06:50:24;;;;;;;1999.90;999.90;;;;;;;10.73;57.92;102120.97;5030807;27;96928;-78
2021/09/01 06:52:53;;;;;;;1999.90;999.90;;;;;;;10.72;58.05;102127.16;5037462;27;99347;-78
2021/09/01 06:55:21;;;;;;;1999.90;999.90;;;;;;;10.75;57.96;102120.19;5038690;27;98605;-77
2021/09/01 06:57:49;;;;;;;1999.90;999.90;;;;;;;10.75;58.01;102122.84;5034007;27;96711;-78
2021/09/01 07:00:19;;;;;;;1999.90;999.90;;;;;;;10.76;57.84;102118.41;5031335;27;96982;-78
2021/09/01 07:02:48;;;;;;;1999.90;999.90;;;;;;;10.77;57.96;102120.25;5032950;27;96818;-78
2021/09/01 07:05:18;;;;;;;1999.90;999.90;;;;;;;10.83;57.84;102120.50;5036383;27;99205;-77
2021/09/01 07:07:47;;;;;;;1999.90;999.90;;;;;;;10.86;57.91;102121.53;5038331;27;96764;-77
2021/09/01 07:10:15;;;;;;;1999.90;999.90;;;;;;;10.89;57.81;102116.34;5048146;27;97078;-78
2021/09/01 07:12:43;;;;;;;1999.90;999.90;;;;;;;10.96;57.66;102114.81;5037022;27;99328;-78
2021/09/01 07:15:11;;;;;;;1999.90;999.90;;;;;;;10.99;57.48;102114.97;5036306;27;100238;-78
2021/09/01 07:17:41;;;;;;;1999.90;999.90;;;;;;;11.01;57.85;102118.59;5016010;27;96792;-78
2021/09/01 07:20:10;;;;;;;1999.90;999.90;;;;;;;11.02;57.65;102120.41;5030621;27;96514;-77
2021/09/01 07:22:39;;;;;;;1999.90;999.90;;;;;;;11.01;57.58;102127.47;5033460;27;99373;-77
2021/09/01 07:25:08;;;;;;;1999.90;999.90;;;;;;;11.03;57.59;102128.44;5043150;27;97818;-78
2021/09/01 07:27:36;;;;;;;1999.90;999.90;;;;;;;11.00;57.57;102125.66;5033874;27;96728;-78
2021/09/01 07:30:06;;;;;;;1999.90;999.90;;;;;;;11.00;57.60;102136.31;5038320;27;96915;-77
2021/09/01 07:32:34;;;;;;;1999.90;999.90;;;;;;;11.02;57.59;102139.97;5024728;27;100150;-78
2021/09/01 07:35:03;;;;;;;1999.90;999.90;;;;;;;11.02;57.57;102134.63;5040038;27;99002;-78
2021/09/01 07:37:32;;;;;;;1999.90;999.90;;;;;;;11.02;57.43;102137.31;5017369;27;97618;-77
2021/09/01 07:40:02;;;;;;;1999.90;999.90;;;;;;;10.98;57.52;102140.69;5036050;27;97744;-78
2021/09/01 07:42:30;;;;;;;1999.90;999.90;;;;;;;10.98;57.68;102150.41;5029083;27;99696;-77
2021/09/01 07:44:58;;;;;;;1999.90;999.90;;;;;;;10.98;57.70;102158.41;5036038;27;98589;-76
2021/09/01 07:47:27;;;;;;;1999.90;999.90;;;;;;;11.00;57.74;102152.31;5014607;27;96859;-77
2021/09/01 07:49:55;;;;;;;1999.90;999.90;;;;;;;11.03;57.69;102155.09;5030112;27;97176;-77
2021/09/01 07:52:23;;;;;;;1999.90;999.90;;;;;;;11.03;57.65;102156.88;5034516;27;98067;-77
2021/09/01 07:54:51;;;;;;;1999.90;999.90;;;;;;;11.06;57.53;102156.97;5034990;27;99538;-77
2021/09/01 07:57:23;;;;;;;1999.90;999.90;;;;;;;11.08;57.40;102163.28;5032637;27;97236;-77
2021/09/01 07:59:51;;;;;;;1999.90;999.90;;;;;;;11.10;57.59;102162.47;5036481;27;96897;-76
2021/09/01 08:02:19;;;;;;;1999.90;999.90;;;;;;;11.11;57.62;102152.75;5029901;27;97198;-78
2021/09/01 08:04:47;;;;;;;1999.90;999.90;;;;;;;11.16;57.47;102161.81;5034661;27;99184;-77
2021/09/01 08:07:15;;;;;;;1999.90;999.90;;;;;;;11.20;57.61;102161.09;5032580;27;97205;-78
2021/09/01 08:09:43;;;;;;;1999.90;999.90;;;;;;;11.27;57.28;102160.50;5019365;27;96876;-77
2021/09/01 08:12:11;;;;;;;1999.90;999.90;;;;;;;11.31;57.13;102156.19;5042364;27;98058;-78
2021/09/01 08:14:40;;;;;;;1999.90;999.90;;;;;;;11.37;56.90;102169.81;5019725;27;99730;-77
2021/09/01 08:17:08;;;;;;;1999.90;999.90;;;;;;;11.37;57.04;102164.47;5037573;27;96786;-77
2021/09/01 08:19:36;;;;;;;1999.90;999.90;;;;;;;11.40;57.05;102162.84;5040738;27;96794;-77
2021/09/01 08:22:04;;;;;;;1999.90;999.90;;;;;;;11.44;56.85;102161.22;5033648;27;99657;-77
2021/09/01 08:24:32;;;;;;;1999.90;999.90;;;;;;;11.46;56.89;102163.09;5042165;27;99259;-77
2021/09/01 08:27:00;;;;;;;1999.90;999.90;;;;;;;11.50;56.94;102172.13;5018638;27;96973;-77
2021/09/01 08:29:28;;;;;;;1999.90;999.90;;;;;;;11.52;56.74;102163.34;5034914;27;96757;-77
2021/09/01 08:31:57;;;;;;;1999.90;999.90;;;;;;;11.55;56.80;102163.44;5029075;27;98840;-76
2021/09/01 08:34:25;;;;;;;1999.90;999.90;;;;;;;11.60;56.75;102172.53;5029677;27;99421;-76
2021/09/01 08:36:53;;;;;;;1999.90;999.90;;;;;;;11.63;56.73;102164.69;5015786;27;96807;-76
2021/09/01 08:39:21;;;;;;;1999.90;999.90;;;;;;;11.63;56.76;102163.75;5050913;27;96987;-76
2021/09/01 08:41:49;;;;;;;1999.90;999.90;;;;;;;11.68;56.49;102164.84;5035003;27;99486;-76
2021/09/01 08:44:17;;;;;;;1999.90;999.90;;;;;;;11.70;56.55;102166.72;5037745;27;96755;-76
2021/09/01 08:46:48;;;;;;;1999.90;999.90;;;;;;;11.70;56.50;102172.06;5032330;27;96867;-76
2021/09/01 08:49:18;;;;;;;1999.90;999.90;;;;;;;11.70;56.50;102166.72;5014881;27;96866;-76
2021/09/01 08:51:47;;;;;;;1999.90;999.90;;;;;;;11.70;56.66;102172.06;5023230;27;98084;-77
2021/09/01 08:54:15;;;;;;;1999.90;999.90;;;;;;;11.71;56.62;102171.19;5031456;27;99105;-76
2021/09/01 08:56:43;;;;;;;1999.90;999.90;;;;;;;11.78;56.43;102169.69;5013090;27;96892;-76
2021/09/01 08:59:11;;;;;;;1999.90;999.90;;;;;;;11.83;56.29;102169.00;5016328;27;96847;-77
2021/09/01 09:01:41;;;;;;;1999.90;999.90;;;;;;;11.90;56.38;102170.13;5024807;27;100909;-77
2021/09/01 09:04:18;;;;;;;1999.90;999.90;;;;;;;11.97;56.12;102178.44;5040235;27;99463;-76
2021/09/01 09:06:51;;;;;;;1999.90;999.90;;;;;;;12.04;55.93;102169.81;5030183;27;96775;-77
2021/09/01 09:09:20;;;;;;;1999.90;999.90;;;;;;;12.10;55.80;102167.38;5029513;27;97385;-75
2021/09/01 09:11:49;;;;;;;1999.90;999.90;;;;;;;12.17;55.77;102160.53;5012026;27;99591;-77
2021/09/01 09:14:23;;;;;;;1999.90;999.90;;;;;;;12.23;55.76;102170.50;5000717;27;98485;-77
2021/09/01 09:17:06;;;;;;;1999.90;999.90;;;;;;;12.26;55.86;102165.28;5029189;27;97375;-77
2021/09/01 09:19:50;;;;;;;1999.90;999.90;;;;;;;12.30;55.75;102161.88;5012586;27;97026;-77
2021/09/01 09:22:29;;;;;;;1999.90;999.90;;;;;;;12.36;55.67;102163.00;5031761;27;98287;-77
2021/09/01 09:25:15;;;;;;;1999.90;999.90;;;;;;;12.42;55.58;102155.19;5024901;27;99109;-77
2021/09/01 09:27:45;;;;;;;1999.90;999.90;;;;;;;12.45;55.41;102160.66;5029826;27;96863;-77
2021/09/01 09:30:35;;;;;;;1999.90;999.90;;;;;;;12.50;55.48;102144.78;5012677;27;96961;-77
2021/09/01 09:33:06;;;;;;;1999.90;999.90;;;;;;;12.55;55.33;102154.78;5029602;27;98469;-77
2021/09/01 09:35:49;;;;;;;1999.90;999.90;;;;;;;12.56;55.36;102151.28;5050353;27;100983;-77
2021/09/01 09:38:26;;;;;;;1999.90;999.90;;;;;;;12.64;55.11;102154.19;5031553;27;96952;-76
2021/09/01 09:40:54;;;;;;;1999.90;999.90;;;;;;;12.69;55.17;102161.50;5036248;27;96834;-77
2021/09/01 09:43:24;;;;;;;1999.90;999.90;;;;;;;12.72;55.07;102161.63;5030280;27;99522;-77
2021/09/01 09:46:01;;;;;;;1999.90;999.90;;;;;;;12.80;54.90;102162.78;5034800;27;97508;-77
2021/09/01 09:48:35;;;;;;;1999.90;999.90;;;;;;;12.86;54.94;102151.38;5049306;27;97527;-76
2021/09/01 09:51:06;;;;;;;1999.90;999.90;;;;;;;12.91;54.67;102157.81;5031555;27;96863;-76
2021/09/01 09:53:36;;;;;;;1999.90;999.90;;;;;;;12.96;54.61;102154.44;5013659;27;100645;-77
2021/09/01 09:56:16;;;;;;;1999.90;999.90;;;;;;;13.02;54.53;102145.75;5029864;27;100795;-76
2021/09/01 09:58:46;;;;;;;1999.90;999.90;;;;;;;13.09;54.61;102150.44;5013930;27;97146;-76
2021/09/01 10:01:15;;;;;;;1999.90;999.90;;;;;;;13.13;54.66;102146.97;5025429;27;96923;-76
2021/09/01 10:03:43;;;;;;;1999.90;999.90;;;;;;;13.20;54.46;102148.09;5015059;27;99202;-76
2021/09/01 10:06:16;;;;;;;1999.90;999.90;;;;;;;13.27;54.40;102155.44;5031846;27;98215;-77
2021/09/01 10:08:45;;;;;;;1999.90;999.90;;;;;;;13.32;54.22;102165.44;5029393;27;96829;-77
2021/09/01 10:11:26;;;;;;;1999.90;999.90;;;;;;;13.40;54.18;102165.69;5031246;27;97085;-77
2021/09/01 10:13:56;;;;;;;1999.90;999.90;;;;;;;13.43;54.05;102160.41;5028084;27;98566;-76
2021/09/01 10:16:30;;;;;;;1999.90;999.90;;;;;;;13.48;54.00;102162.38;5012584;27;99461;-77
2021/09/01 10:19:05;;;;;;;1999.90;999.90;;;;;;;13.49;53.87;102156.19;5029303;27;96765;-75
2021/09/01 10:21:36;;;;;;;1999.90;999.90;;;;;;;13.51;53.88;102162.50;5011504;27;96890;-77
2021/09/01 10:24:22;;;;;;;1999.90;999.90;;;;;;;13.52;54.03;102164.28;5029982;27;99226;-76
2021/09/01 10:27:02;;;;;;;1999.90;999.90;;;;;;;13.58;53.95;102168.94;5025892;27;99832;-77
2021/09/01 10:29:57;;;;;;;1999.90;999.90;;;;;;;13.61;53.83;102161.91;5038883;27;97049;-77
2021/09/01 10:32:31;;;;;;;1999.90;999.90;;;;;;;13.65;53.69;102161.13;5046250;27;96772;-76
2021/09/01 10:35:32;;;;;;;1999.90;999.90;;;;;;;13.65;53.38;102163.81;5020017;27;99643;-76
2021/09/01 10:38:08;;;;;;;1999.90;999.90;;;;;;;13.72;53.62;102155.09;5026210;27;97808;-76
2021/09/01 10:41:07;;;;;;;1999.90;999.90;;;;;;;13.78;53.57;102152.63;5029340;27;96716;-76
2021/09/01 10:43:35;;;;;;;1999.90;999.90;;;;;;;13.83;53.64;102143.00;5013357;27;96890;-77
2021/09/01 10:46:04;;;;;;;1999.90;999.90;;;;;;;13.88;53.50;102148.47;5017090;27;98956;-76
2021/09/01 10:48:57;;;;;;;1999.90;999.90;;;;;;;13.94;53.60;102141.53;5033830;27;97862;-77
2021/09/01 10:51:56;;;;;;;1999.90;999.90;;;;;;;14.00;53.46;102141.72;5010653;27;96804;-77
2021/09/01 10:54:30;;;;;;;1999.90;999.90;;;;;;;14.04;53.26;102140.91;5008111;27;97468;-76
2021/09/01 10:57:01;;;;;;;1999.90;999.90;;;;;;;14.07;53.47;102143.72;5013798;27;99374;-76